createdAt,value
2018-09-29T00:02:14.769Z,2.30
2018-09-29T00:08:19.365Z,2.00
2018-09-29T00:14:23.971Z,2.07
2018-09-29T00:20:28.837Z,1.63
2018-09-29T00:26:33.838Z,1.83
2018-09-29T00:32:38.430Z,1.93
2018-09-29T00:38:43.009Z,2.50
2018-09-29T00:44:47.608Z,1.87
2018-09-29T00:50:52.289Z,2.10
2018-09-29T00:56:56.930Z,1.67
2018-09-29T01:03:01.560Z,2.00
2018-09-29T01:09:07.559Z,2.37
2018-09-29T01:15:12.156Z,1.90
2018-09-29T01:21:16.759Z,2.50
2018-09-29T01:27:21.309Z,2.00
2018-09-29T01:33:26.197Z,2.10
2018-09-29T01:39:30.785Z,1.43
2018-09-29T01:45:35.658Z,2.03
2018-09-29T01:51:41.072Z,1.97
2018-09-29T01:57:46.035Z,2.13
2018-09-29T02:03:50.575Z,3.37
2018-09-29T02:09:55.177Z,1.80
2018-09-29T02:15:59.835Z,2.33
2018-09-29T02:22:04.449Z,1.90
2018-09-29T02:28:09.062Z,2.67
2018-09-29T02:34:13.659Z,2.00
2018-09-29T02:40:18.621Z,2.20
2018-09-29T02:46:23.213Z,2.10
2018-09-29T02:52:28.247Z,1.80
2018-09-29T02:58:32.850Z,2.17
2018-09-29T03:04:37.456Z,2.90
2018-09-29T03:10:42.021Z,2.33
2018-09-29T03:16:46.593Z,2.07
2018-09-29T03:22:51.557Z,2.40
2018-09-29T03:28:56.116Z,2.03
2018-09-29T03:35:00.691Z,2.13
2018-09-29T03:41:05.275Z,2.10
2018-09-29T03:47:09.885Z,2.47
2018-09-29T03:53:14.890Z,1.80
2018-09-29T03:59:19.485Z,1.90
2018-09-29T04:05:24.082Z,2.40
2018-09-29T04:11:28.743Z,2.07
2018-09-29T04:17:33.341Z,2.50
2018-09-29T04:23:37.960Z,2.60
2018-09-29T04:29:43.988Z,2.70
2018-09-29T04:35:48.961Z,2.70
2018-09-29T04:41:53.903Z,2.10
2018-09-29T04:47:58.664Z,3.70
2018-09-29T04:54:03.309Z,3.47
2018-09-29T05:00:07.974Z,2.97
2018-09-29T05:06:12.806Z,4.90
2018-09-29T05:12:17.414Z,3.00
2018-09-29T05:18:21.977Z,4.50
2018-09-29T05:24:26.888Z,5.00
2018-09-29T05:30:31.512Z,3.17
2018-09-29T05:36:36.265Z,2.90
2018-09-29T05:42:40.849Z,3.00
2018-09-29T05:48:45.451Z,3.00
2018-09-29T05:54:50.038Z,4.20
2018-09-29T06:00:54.642Z,3.10
2018-09-29T06:06:59.717Z,2.90
2018-09-29T06:13:04.362Z,3.33
2018-09-29T06:19:09.314Z,3.63
2018-09-29T06:25:13.892Z,3.37
2018-09-29T06:31:18.440Z,4.10
2018-09-29T06:37:22.998Z,3.30
2018-09-29T06:43:27.590Z,4.37
2018-09-29T06:49:32.198Z,4.10
2018-09-29T06:55:37.066Z,3.50
2018-09-29T07:01:42.058Z,4.00
2018-09-29T07:07:46.637Z,4.53
2018-09-29T07:13:51.240Z,6.00
2018-09-29T07:19:56.101Z,4.03
2018-09-29T07:26:00.727Z,4.73
2018-09-29T07:32:05.394Z,3.73
2018-09-29T07:38:09.973Z,4.27
2018-09-29T07:44:14.587Z,4.57
2018-09-29T07:50:19.182Z,4.03
2018-09-29T07:56:23.763Z,3.57
2018-09-29T08:02:28.353Z,3.03
2018-09-29T08:08:35.999Z,3.40
2018-09-29T08:14:40.572Z,3.90
2018-09-29T08:20:45.201Z,2.83
2018-09-29T08:26:49.833Z,3.80
2018-09-29T08:32:54.420Z,3.20
2018-09-29T08:38:59.402Z,2.50
2018-09-29T08:45:04.205Z,3.37
2018-09-29T08:51:08.813Z,2.87
2018-09-29T08:57:13.393Z,2.57
2018-09-29T09:03:18.005Z,2.80
2018-09-29T09:09:22.653Z,3.10
2018-09-29T09:15:27.595Z,2.97
2018-09-29T09:21:32.322Z,2.87
2018-09-29T09:27:43.333Z,3.33
2018-09-29T09:33:48.008Z,4.07
2018-09-29T09:39:52.588Z,3.40
2018-09-29T09:45:57.516Z,4.70
2018-09-29T09:52:02.106Z,2.80
2018-09-29T09:58:06.777Z,2.30
2018-09-29T10:04:11.383Z,3.30
2018-09-29T10:10:15.990Z,3.23
2018-09-29T10:16:20.946Z,2.70
2018-09-29T10:22:25.822Z,2.60
2018-09-29T10:28:30.364Z,2.40
2018-09-29T10:34:34.937Z,2.10
2018-09-29T10:40:39.546Z,2.20
2018-09-29T10:46:44.165Z,1.67
2018-09-29T10:52:48.809Z,2.03
2018-09-29T10:58:53.375Z,1.70
2018-09-29T11:04:57.982Z,1.80
2018-09-29T11:11:02.632Z,3.10
2018-09-29T11:17:07.373Z,1.67
2018-09-29T11:23:12.020Z,1.67
2018-09-29T11:29:16.857Z,1.30
2018-09-29T11:35:21.797Z,1.50
2018-09-29T11:41:26.406Z,1.50
2018-09-29T11:47:31.032Z,1.80
2018-09-29T11:53:35.704Z,1.57
2018-09-29T11:59:40.337Z,1.33
2018-09-29T12:05:44.919Z,1.40
2018-09-29T12:11:49.487Z,1.63
2018-09-29T12:17:54.046Z,1.50
2018-09-29T12:23:58.660Z,1.50
2018-09-29T12:30:03.264Z,1.37
2018-09-29T12:36:07.898Z,1.37
2018-09-29T12:42:12.502Z,1.20
2018-09-29T12:48:17.447Z,2.30
2018-09-29T12:54:22.019Z,1.60
2018-09-29T13:00:26.885Z,1.57
2018-09-29T13:06:31.702Z,1.47
2018-09-29T13:12:36.613Z,1.77
2018-09-29T13:18:41.183Z,1.20
2018-09-29T13:24:45.768Z,1.40
2018-09-29T13:30:50.417Z,1.37
2018-09-29T13:36:55.404Z,1.73
2018-09-29T13:42:59.985Z,1.27
2018-09-29T13:49:04.704Z,2.57
2018-09-29T13:55:09.296Z,1.50
2018-09-29T14:01:13.863Z,1.67
2018-09-29T14:07:18.771Z,1.60
2018-09-29T14:13:23.350Z,1.57
2018-09-29T14:19:27.946Z,1.10
2018-09-29T14:25:32.858Z,1.77
2018-09-29T14:31:37.458Z,1.70
2018-09-29T14:37:42.090Z,1.23
2018-09-29T14:43:46.675Z,1.13
2018-09-29T14:49:51.288Z,1.17
2018-09-29T14:55:56.238Z,1.30
2018-09-29T15:02:00.873Z,1.20
2018-09-29T15:08:05.511Z,1.27
2018-09-29T15:14:10.732Z,1.10
2018-09-29T15:20:15.356Z,1.20
2018-09-29T15:26:20.346Z,1.70
2018-09-29T15:32:24.977Z,1.70
2018-09-29T15:38:29.574Z,1.20
2018-09-29T15:44:34.418Z,2.10
2018-09-29T15:50:39.348Z,1.20
2018-09-29T15:56:43.997Z,1.20
2018-09-29T16:02:48.589Z,1.33
2018-09-29T16:08:53.200Z,1.67
2018-09-29T16:14:57.826Z,1.20
2018-09-29T16:21:02.462Z,1.37
2018-09-29T16:27:07.148Z,1.53
2018-09-29T16:33:11.802Z,1.40
2018-09-29T16:39:16.400Z,1.70
2018-09-29T16:45:20.983Z,1.30
2018-09-29T16:51:25.573Z,1.53
2018-09-29T16:57:30.196Z,1.83
2018-09-29T17:03:35.304Z,1.50
2018-09-29T17:09:39.889Z,1.60
2018-09-29T17:15:44.551Z,1.47
2018-09-29T17:21:49.253Z,1.20
2018-09-29T17:27:53.925Z,1.07
2018-09-29T17:33:58.526Z,1.40
2018-09-29T17:40:03.234Z,1.10
2018-09-29T17:46:07.941Z,1.13
2018-09-29T17:52:12.609Z,1.13
2018-09-29T17:58:17.231Z,0.80
2018-09-29T18:04:21.942Z,1.17
2018-09-29T18:10:26.486Z,1.23
2018-09-29T18:16:31.084Z,1.00
2018-09-29T18:22:35.675Z,1.37
2018-09-29T18:28:40.683Z,2.67
2018-09-29T18:34:45.282Z,1.77
2018-09-29T18:40:49.885Z,2.10
2018-09-29T18:46:54.535Z,1.10
2018-09-29T18:52:59.466Z,1.20
2018-09-29T18:59:04.089Z,1.90
2018-09-29T19:05:08.740Z,1.20
2018-09-29T19:11:13.890Z,1.40
2018-09-29T19:17:19.242Z,1.33
2018-09-29T19:23:24.119Z,1.40
2018-09-29T19:29:28.958Z,1.60
2018-09-29T19:35:33.625Z,1.70
2018-09-29T19:41:38.253Z,1.80
2018-09-29T19:47:42.871Z,1.50
2018-09-29T19:53:48.110Z,1.63
2018-09-29T19:59:52.658Z,1.20
2018-09-29T20:05:57.581Z,1.30
2018-09-29T20:12:02.237Z,1.20
2018-09-29T20:18:07.379Z,1.40
2018-09-29T20:24:11.979Z,1.30
2018-09-29T20:30:16.548Z,1.70
2018-09-29T20:36:21.204Z,3.20
2018-09-29T20:42:27.294Z,2.50
2018-09-29T20:48:31.912Z,2.50
2018-09-29T20:54:36.464Z,3.00
2018-09-29T21:00:41.048Z,1.53
2018-09-29T21:06:45.616Z,1.57
2018-09-29T21:12:50.238Z,1.40
2018-09-29T21:18:55.598Z,1.67
2018-09-29T21:25:00.470Z,1.60
2018-09-29T21:31:05.080Z,1.40
2018-09-29T21:37:10.286Z,1.40
2018-09-29T21:43:14.919Z,1.80
2018-09-29T21:49:19.795Z,2.27
2018-09-29T21:55:24.394Z,1.70
2018-09-29T22:01:33.366Z,1.47
2018-09-29T22:07:37.916Z,2.00
2018-09-29T22:13:42.582Z,1.90
2018-09-29T22:19:47.446Z,1.63
2018-09-29T22:25:52.057Z,1.70
2018-09-29T22:31:56.615Z,1.67
2018-09-29T22:38:01.209Z,1.80
2018-09-29T22:44:06.261Z,2.27
2018-09-29T22:50:11.174Z,2.47
2018-09-29T22:56:16.063Z,1.97
2018-09-29T23:02:20.854Z,2.20
2018-09-29T23:08:25.427Z,2.30
2018-09-29T23:14:30.001Z,2.17
2018-09-29T23:20:34.573Z,2.40
2018-09-29T23:26:39.198Z,2.60
2018-09-29T23:32:43.869Z,2.67
2018-09-29T23:38:48.483Z,2.40
2018-09-29T23:44:53.179Z,2.70
2018-09-29T23:50:57.767Z,2.33
2018-09-29T23:57:02.716Z,2.83
